sensor_id;sensor_type;location;lat;lon;timestamp;temperature;humidity
21734;DHT22;11029;47.820;10.534;2023-07-20T00:00:30;18.00;61.00
21734;DHT22;11029;47.820;10.534;2023-07-20T00:03:13;18.10;60.60
21734;DHT22;11029;47.820;10.534;2023-07-20T00:05:43;18.10;60.50
21734;DHT22;11029;47.820;10.534;2023-07-20T00:08:11;18.10;60.70
21734;DHT22;11029;47.820;10.534;2023-07-20T00:10:38;18.10;60.30
21734;DHT22;11029;47.820;10.534;2023-07-20T00:13:05;18.20;60.00
21734;DHT22;11029;47.820;10.534;2023-07-20T00:15:32;18.20;60.00
21734;DHT22;11029;47.820;10.534;2023-07-20T00:17:59;18.20;59.80
21734;DHT22;11029;47.820;10.534;2023-07-20T00:20:26;18.20;59.70
21734;DHT22;11029;47.820;10.534;2023-07-20T00:22:52;18.30;59.80
21734;DHT22;11029;47.820;10.534;2023-07-20T00:25:21;18.40;59.50
21734;DHT22;11029;47.820;10.534;2023-07-20T00:27:48;18.50;59.20
21734;DHT22;11029;47.820;10.534;2023-07-20T00:30:15;18.50;59.10
21734;DHT22;11029;47.820;10.534;2023-07-20T00:32:43;18.60;59.00
21734;DHT22;11029;47.820;10.534;2023-07-20T00:35:10;18.70;58.90
21734;DHT22;11029;47.820;10.534;2023-07-20T00:37:40;18.70;58.90
21734;DHT22;11029;47.820;10.534;2023-07-20T00:40:07;18.70;58.80
21734;DHT22;11029;47.820;10.534;2023-07-20T00:42:34;18.80;58.80
21734;DHT22;11029;47.820;10.534;2023-07-20T00:45:02;18.80;59.00
21734;DHT22;11029;47.820;10.534;2023-07-20T00:47:29;18.80;59.10
21734;DHT22;11029;47.820;10.534;2023-07-20T00:49:56;18.80;59.30
21734;DHT22;11029;47.820;10.534;2023-07-20T00:52:23;18.70;59.00
21734;DHT22;11029;47.820;10.534;2023-07-20T00:54:52;18.70;59.10
21734;DHT22;11029;47.820;10.534;2023-07-20T00:57:19;18.50;59.90
21734;DHT22;11029;47.820;10.534;2023-07-20T00:59:47;18.60;60.30
21734;DHT22;11029;47.820;10.534;2023-07-20T01:02:13;18.60;60.30
21734;DHT22;11029;47.820;10.534;2023-07-20T01:04:40;18.70;60.30
21734;DHT22;11029;47.820;10.534;2023-07-20T01:07:23;18.70;59.90
21734;DHT22;11029;47.820;10.534;2023-07-20T01:12:48;18.60;59.80
21734;DHT22;11029;47.820;10.534;2023-07-20T01:15:18;18.50;60.70
21734;DHT22;11029;47.820;10.534;2023-07-20T01:17:45;18.40;60.90
21734;DHT22;11029;47.820;10.534;2023-07-20T01:20:17;18.30;61.00
21734;DHT22;11029;47.820;10.534;2023-07-20T01:29:54;18.20;61.60
21734;DHT22;11029;47.820;10.534;2023-07-20T01:32:01;18.00;61.90
21734;DHT22;11029;47.820;10.534;2023-07-20T01:34:32;17.90;62.70
21734;DHT22;11029;47.820;10.534;2023-07-20T01:36:59;17.90;62.70
21734;DHT22;11029;47.820;10.534;2023-07-20T01:39:27;17.80;63.00
21734;DHT22;11029;47.820;10.534;2023-07-20T01:41:55;17.80;62.60
21734;DHT22;11029;47.820;10.534;2023-07-20T01:44:22;17.70;62.20
21734;DHT22;11029;47.820;10.534;2023-07-20T01:46:49;17.70;62.00
21734;DHT22;11029;47.820;10.534;2023-07-20T01:49:15;17.70;62.50
21734;DHT22;11029;47.820;10.534;2023-07-20T01:51:43;17.70;62.60
21734;DHT22;11029;47.820;10.534;2023-07-20T01:54:10;17.70;62.20
21734;DHT22;11029;47.820;10.534;2023-07-20T01:56:37;17.80;61.60
21734;DHT22;11029;47.820;10.534;2023-07-20T01:59:04;17.70;62.00
21734;DHT22;11029;47.820;10.534;2023-07-20T02:01:31;17.70;62.30
21734;DHT22;11029;47.820;10.534;2023-07-20T02:03:58;17.80;62.40
21734;DHT22;11029;47.820;10.534;2023-07-20T02:06:25;17.70;61.80
21734;DHT22;11029;47.820;10.534;2023-07-20T02:08:52;17.70;62.30
21734;DHT22;11029;47.820;10.534;2023-07-20T02:11:19;17.60;62.40
21734;DHT22;11029;47.820;10.534;2023-07-20T02:13:46;17.60;63.20
21734;DHT22;11029;47.820;10.534;2023-07-20T02:16:13;17.50;62.50
21734;DHT22;11029;47.820;10.534;2023-07-20T02:18:39;17.40;63.80
21734;DHT22;11029;47.820;10.534;2023-07-20T02:21:07;17.20;64.50
21734;DHT22;11029;47.820;10.534;2023-07-20T02:23:34;17.10;64.80
21734;DHT22;11029;47.820;10.534;2023-07-20T02:26:01;16.90;64.90
21734;DHT22;11029;47.820;10.534;2023-07-20T02:28:28;16.90;65.40
21734;DHT22;11029;47.820;10.534;2023-07-20T02:30:55;16.90;65.60
21734;DHT22;11029;47.820;10.534;2023-07-20T02:33:22;16.90;65.00
21734;DHT22;11029;47.820;10.534;2023-07-20T02:35:49;16.90;64.80
21734;DHT22;11029;47.820;10.534;2023-07-20T02:38:17;16.90;64.90
21734;DHT22;11029;47.820;10.534;2023-07-20T02:40:44;16.80;65.00
21734;DHT22;11029;47.820;10.534;2023-07-20T02:43:11;16.90;64.90
21734;DHT22;11029;47.820;10.534;2023-07-20T02:45:41;17.00;64.00
21734;DHT22;11029;47.820;10.534;2023-07-20T02:48:11;17.10;64.40
21734;DHT22;11029;47.820;10.534;2023-07-20T02:50:37;17.00;63.60
21734;DHT22;11029;47.820;10.534;2023-07-20T02:53:04;17.10;63.30
21734;DHT22;11029;47.820;10.534;2023-07-20T02:55:31;17.20;63.70
21734;DHT22;11029;47.820;10.534;2023-07-20T02:57:58;17.00;64.50
21734;DHT22;11029;47.820;10.534;2023-07-20T03:00:25;17.00;65.00
21734;DHT22;11029;47.820;10.534;2023-07-20T03:02:52;17.10;65.10
21734;DHT22;11029;47.820;10.534;2023-07-20T03:05:23;17.30;65.60
21734;DHT22;11029;47.820;10.534;2023-07-20T03:07:52;17.40;65.10
21734;DHT22;11029;47.820;10.534;2023-07-20T03:10:19;17.40;65.10
21734;DHT22;11029;47.820;10.534;2023-07-20T03:12:46;17.50;65.00
21734;DHT22;11029;47.820;10.534;2023-07-20T03:15:13;17.50;65.30
21734;DHT22;11029;47.820;10.534;2023-07-20T03:17:39;17.40;66.00
21734;DHT22;11029;47.820;10.534;2023-07-20T03:20:07;17.30;67.00
21734;DHT22;11029;47.820;10.534;2023-07-20T03:22:36;17.40;67.10
21734;DHT22;11029;47.820;10.534;2023-07-20T03:25:03;17.60;67.70
21734;DHT22;11029;47.820;10.534;2023-07-20T03:27:31;17.60;67.00
21734;DHT22;11029;47.820;10.534;2023-07-20T03:29:59;17.70;66.90
21734;DHT22;11029;47.820;10.534;2023-07-20T03:32:26;17.70;66.40
21734;DHT22;11029;47.820;10.534;2023-07-20T03:34:53;17.70;66.50
21734;DHT22;11029;47.820;10.534;2023-07-20T03:37:21;17.80;66.40
21734;DHT22;11029;47.820;10.534;2023-07-20T03:39:48;17.60;67.40
21734;DHT22;11029;47.820;10.534;2023-07-20T03:42:15;17.40;69.10
21734;DHT22;11029;47.820;10.534;2023-07-20T03:44:42;17.30;70.10
21734;DHT22;11029;47.820;10.534;2023-07-20T03:47:08;17.30;70.70
21734;DHT22;11029;47.820;10.534;2023-07-20T03:49:35;17.30;71.60
21734;DHT22;11029;47.820;10.534;2023-07-20T03:52:02;17.20;72.50
21734;DHT22;11029;47.820;10.534;2023-07-20T03:54:32;17.20;71.20
21734;DHT22;11029;47.820;10.534;2023-07-20T03:56:59;17.10;70.20
21734;DHT22;11029;47.820;10.534;2023-07-20T03:59:27;17.20;69.00
21734;DHT22;11029;47.820;10.534;2023-07-20T04:01:54;17.30;69.20
21734;DHT22;11029;47.820;10.534;2023-07-20T04:04:20;17.40;69.40
21734;DHT22;11029;47.820;10.534;2023-07-20T04:06:47;17.40;69.90
21734;DHT22;11029;47.820;10.534;2023-07-20T04:09:14;17.20;70.90
21734;DHT22;11029;47.820;10.534;2023-07-20T04:11:41;17.00;71.70
21734;DHT22;11029;47.820;10.534;2023-07-20T04:14:08;17.00;72.60
21734;DHT22;11029;47.820;10.534;2023-07-20T04:16:34;17.00;72.40
21734;DHT22;11029;47.820;10.534;2023-07-20T04:19:01;17.10;72.30
21734;DHT22;11029;47.820;10.534;2023-07-20T04:21:28;17.00;71.80
21734;DHT22;11029;47.820;10.534;2023-07-20T04:23:55;16.90;72.30
21734;DHT22;11029;47.820;10.534;2023-07-20T04:26:23;16.50;74.70
21734;DHT22;11029;47.820;10.534;2023-07-20T04:28:51;16.40;75.10
21734;DHT22;11029;47.820;10.534;2023-07-20T04:31:31;16.20;76.00
21734;DHT22;11029;47.820;10.534;2023-07-20T04:34:00;16.10;76.60
21734;DHT22;11029;47.820;10.534;2023-07-20T04:36:27;16.10;76.50
21734;DHT22;11029;47.820;10.534;2023-07-20T04:38:54;16.30;76.60
21734;DHT22;11029;47.820;10.534;2023-07-20T04:41:22;16.20;77.30
21734;DHT22;11029;47.820;10.534;2023-07-20T04:43:51;16.30;77.30
21734;DHT22;11029;47.820;10.534;2023-07-20T04:46:28;16.50;76.10
21734;DHT22;11029;47.820;10.534;2023-07-20T04:48:56;16.60;75.10
21734;DHT22;11029;47.820;10.534;2023-07-20T04:51:25;16.60;75.90
21734;DHT22;11029;47.820;10.534;2023-07-20T04:53:54;16.50;75.50
21734;DHT22;11029;47.820;10.534;2023-07-20T04:56:22;16.50;75.80
21734;DHT22;11029;47.820;10.534;2023-07-20T04:58:52;16.60;75.80
21734;DHT22;11029;47.820;10.534;2023-07-20T05:01:18;16.60;75.20
21734;DHT22;11029;47.820;10.534;2023-07-20T05:03:45;16.80;74.50
21734;DHT22;11029;47.820;10.534;2023-07-20T05:06:13;16.80;74.40
21734;DHT22;11029;47.820;10.534;2023-07-20T05:08:40;16.80;74.40
21734;DHT22;11029;47.820;10.534;2023-07-20T05:11:07;16.70;74.20
21734;DHT22;11029;47.820;10.534;2023-07-20T05:13:33;16.70;74.20
21734;DHT22;11029;47.820;10.534;2023-07-20T05:16:00;16.90;74.50
21734;DHT22;11029;47.820;10.534;2023-07-20T05:18:27;16.90;74.10
21734;DHT22;11029;47.820;10.534;2023-07-20T05:20:54;16.70;74.50
21734;DHT22;11029;47.820;10.534;2023-07-20T05:23:21;16.70;75.30
21734;DHT22;11029;47.820;10.534;2023-07-20T05:25:55;16.80;75.40
21734;DHT22;11029;47.820;10.534;2023-07-20T05:28:26;16.80;75.20
21734;DHT22;11029;47.820;10.534;2023-07-20T05:30:53;16.80;74.80
21734;DHT22;11029;47.820;10.534;2023-07-20T05:33:21;17.00;74.10
21734;DHT22;11029;47.820;10.534;2023-07-20T05:35:48;17.10;73.60
21734;DHT22;11029;47.820;10.534;2023-07-20T05:38:15;17.30;73.30
21734;DHT22;11029;47.820;10.534;2023-07-20T05:40:42;17.20;72.10
21734;DHT22;11029;47.820;10.534;2023-07-20T05:43:09;17.20;72.70
21734;DHT22;11029;47.820;10.534;2023-07-20T05:45:37;17.20;72.10
21734;DHT22;11029;47.820;10.534;2023-07-20T05:48:04;17.30;72.40
21734;DHT22;11029;47.820;10.534;2023-07-20T05:50:31;17.40;71.60
21734;DHT22;11029;47.820;10.534;2023-07-20T05:52:58;17.50;71.30
21734;DHT22;11029;47.820;10.534;2023-07-20T05:55:25;17.60;71.60
21734;DHT22;11029;47.820;10.534;2023-07-20T05:57:51;17.80;70.30
21734;DHT22;11029;47.820;10.534;2023-07-20T06:00:18;17.90;70.60
21734;DHT22;11029;47.820;10.534;2023-07-20T06:02:46;17.70;69.80
21734;DHT22;11029;47.820;10.534;2023-07-20T06:05:14;17.70;69.60
21734;DHT22;11029;47.820;10.534;2023-07-20T06:07:42;17.80;69.90
21734;DHT22;11029;47.820;10.534;2023-07-20T06:10:08;17.80;70.10
21734;DHT22;11029;47.820;10.534;2023-07-20T06:12:35;17.80;66.90
21734;DHT22;11029;47.820;10.534;2023-07-20T06:15:12;17.70;65.80
21734;DHT22;11029;47.820;10.534;2023-07-20T06:17:50;17.60;64.80
21734;DHT22;11029;47.820;10.534;2023-07-20T06:20:16;17.50;65.10
21734;DHT22;11029;47.820;10.534;2023-07-20T06:22:44;17.50;64.80
21734;DHT22;11029;47.820;10.534;2023-07-20T06:25:12;17.50;63.30
21734;DHT22;11029;47.820;10.534;2023-07-20T06:27:38;17.50;64.10
21734;DHT22;11029;47.820;10.534;2023-07-20T06:30:06;17.40;64.20
21734;DHT22;11029;47.820;10.534;2023-07-20T06:32:33;17.50;64.10
21734;DHT22;11029;47.820;10.534;2023-07-20T06:34:59;17.40;63.70
21734;DHT22;11029;47.820;10.534;2023-07-20T06:37:26;17.50;64.80
21734;DHT22;11029;47.820;10.534;2023-07-20T06:39:53;17.40;62.40
21734;DHT22;11029;47.820;10.534;2023-07-20T06:42:23;17.50;63.70
21734;DHT22;11029;47.820;10.534;2023-07-20T06:44:49;17.60;62.30
21734;DHT22;11029;47.820;10.534;2023-07-20T06:47:16;17.60;64.00
21734;DHT22;11029;47.820;10.534;2023-07-20T06:49:43;17.70;63.30
21734;DHT22;11029;47.820;10.534;2023-07-20T06:52:10;17.90;63.40
21734;DHT22;11029;47.820;10.534;2023-07-20T06:54:36;18.10;62.20
21734;DHT22;11029;47.820;10.534;2023-07-20T06:57:10;18.30;61.10
21734;DHT22;11029;47.820;10.534;2023-07-20T06:59:40;18.50;60.80
21734;DHT22;11029;47.820;10.534;2023-07-20T07:02:08;18.50;59.40
21734;DHT22;11029;47.820;10.534;2023-07-20T07:04:41;18.60;59.30
21734;DHT22;11029;47.820;10.534;2023-07-20T07:07:08;18.60;58.00
21734;DHT22;11029;47.820;10.534;2023-07-20T07:09:35;18.60;56.60
21734;DHT22;11029;47.820;10.534;2023-07-20T07:12:04;18.50;58.60
21734;DHT22;11029;47.820;10.534;2023-07-20T07:14:31;18.70;56.30
21734;DHT22;11029;47.820;10.534;2023-07-20T07:16:59;18.60;56.10
21734;DHT22;11029;47.820;10.534;2023-07-20T07:19:31;18.50;57.70
21734;DHT22;11029;47.820;10.534;2023-07-20T07:21:57;18.30;57.30
21734;DHT22;11029;47.820;10.534;2023-07-20T07:24:26;18.10;57.70
21734;DHT22;11029;47.820;10.534;2023-07-20T07:26:55;18.00;57.40
21734;DHT22;11029;47.820;10.534;2023-07-20T07:29:22;18.00;59.10
21734;DHT22;11029;47.820;10.534;2023-07-20T07:31:49;18.20;58.90
21734;DHT22;11029;47.820;10.534;2023-07-20T07:34:15;18.50;56.80
21734;DHT22;11029;47.820;10.534;2023-07-20T07:36:43;18.50;58.10
21734;DHT22;11029;47.820;10.534;2023-07-20T07:39:10;18.40;55.10
21734;DHT22;11029;47.820;10.534;2023-07-20T07:41:40;18.40;56.50
21734;DHT22;11029;47.820;10.534;2023-07-20T07:44:06;18.60;57.10
21734;DHT22;11029;47.820;10.534;2023-07-20T07:46:33;18.70;56.20
21734;DHT22;11029;47.820;10.534;2023-07-20T07:49:00;18.80;57.60
21734;DHT22;11029;47.820;10.534;2023-07-20T07:51:27;18.80;56.30
21734;DHT22;11029;47.820;10.534;2023-07-20T07:53:54;18.60;56.60
21734;DHT22;11029;47.820;10.534;2023-07-20T07:56:21;18.50;54.90
21734;DHT22;11029;47.820;10.534;2023-07-20T07:58:51;18.40;54.50
21734;DHT22;11029;47.820;10.534;2023-07-20T08:01:18;18.40;52.90
21734;DHT22;11029;47.820;10.534;2023-07-20T08:03:46;18.30;55.10
21734;DHT22;11029;47.820;10.534;2023-07-20T08:06:14;18.40;54.20
21734;DHT22;11029;47.820;10.534;2023-07-20T08:08:41;18.60;54.50
21734;DHT22;11029;47.820;10.534;2023-07-20T08:11:09;18.70;53.70
21734;DHT22;11029;47.820;10.534;2023-07-20T08:13:36;18.90;54.00
21734;DHT22;11029;47.820;10.534;2023-07-20T08:16:03;18.90;53.10
21734;DHT22;11029;47.820;10.534;2023-07-20T08:18:30;19.00;52.60
21734;DHT22;11029;47.820;10.534;2023-07-20T08:20:58;19.10;52.80
21734;DHT22;11029;47.820;10.534;2023-07-20T08:23:24;19.60;50.20
21734;DHT22;11029;47.820;10.534;2023-07-20T08:25:51;19.90;51.70
21734;DHT22;11029;47.820;10.534;2023-07-20T08:28:18;20.30;49.70
21734;DHT22;11029;47.820;10.534;2023-07-20T08:30:47;20.40;48.90
21734;DHT22;11029;47.820;10.534;2023-07-20T08:33:15;20.10;49.60
21734;DHT22;11029;47.820;10.534;2023-07-20T08:35:43;20.00;50.10
21734;DHT22;11029;47.820;10.534;2023-07-20T08:38:10;20.00;50.90
21734;DHT22;11029;47.820;10.534;2023-07-20T08:40:41;19.60;50.50
21734;DHT22;11029;47.820;10.534;2023-07-20T08:43:10;19.10;50.80
21734;DHT22;11029;47.820;10.534;2023-07-20T08:45:39;18.90;52.90
21734;DHT22;11029;47.820;10.534;2023-07-20T08:48:06;18.80;51.90
21734;DHT22;11029;47.820;10.534;2023-07-20T08:50:34;18.80;52.40
21734;DHT22;11029;47.820;10.534;2023-07-20T08:53:01;18.70;52.10
21734;DHT22;11029;47.820;10.534;2023-07-20T08:55:29;18.60;52.10
21734;DHT22;11029;47.820;10.534;2023-07-20T08:57:58;18.50;53.00
21734;DHT22;11029;47.820;10.534;2023-07-20T09:00:26;18.50;53.40
21734;DHT22;11029;47.820;10.534;2023-07-20T09:02:54;18.80;54.20
21734;DHT22;11029;47.820;10.534;2023-07-20T09:05:23;19.20;51.90
21734;DHT22;11029;47.820;10.534;2023-07-20T09:07:52;19.30;52.40
21734;DHT22;11029;47.820;10.534;2023-07-20T09:10:21;19.50;51.70
21734;DHT22;11029;47.820;10.534;2023-07-20T09:12:48;19.60;51.70
21734;DHT22;11029;47.820;10.534;2023-07-20T09:15:15;19.60;52.00
21734;DHT22;11029;47.820;10.534;2023-07-20T09:17:50;20.20;51.60
21734;DHT22;11029;47.820;10.534;2023-07-20T09:20:18;20.70;50.10
21734;DHT22;11029;47.820;10.534;2023-07-20T09:22:50;20.50;50.60
21734;DHT22;11029;47.820;10.534;2023-07-20T09:25:18;20.20;51.40
21734;DHT22;11029;47.820;10.534;2023-07-20T09:27:50;20.20;52.00
21734;DHT22;11029;47.820;10.534;2023-07-20T09:30:18;20.30;51.90
21734;DHT22;11029;47.820;10.534;2023-07-20T09:32:49;20.50;51.30
21734;DHT22;11029;47.820;10.534;2023-07-20T09:35:22;20.70;51.00
21734;DHT22;11029;47.820;10.534;2023-07-20T09:37:59;20.40;49.60
21734;DHT22;11029;47.820;10.534;2023-07-20T09:40:29;20.10;50.40
21734;DHT22;11029;47.820;10.534;2023-07-20T09:42:59;20.10;50.50
21734;DHT22;11029;47.820;10.534;2023-07-20T09:45:34;20.30;51.30
21734;DHT22;11029;47.820;10.534;2023-07-20T09:48:24;20.10;51.90
21734;DHT22;11029;47.820;10.534;2023-07-20T09:50:56;19.90;52.70
21734;DHT22;11029;47.820;10.534;2023-07-20T09:53:24;20.00;52.00
21734;DHT22;11029;47.820;10.534;2023-07-20T09:55:52;20.00;53.30
21734;DHT22;11029;47.820;10.534;2023-07-20T09:58:21;20.10;52.80
21734;DHT22;11029;47.820;10.534;2023-07-20T10:00:51;20.40;51.50
21734;DHT22;11029;47.820;10.534;2023-07-20T10:03:21;20.50;51.30
21734;DHT22;11029;47.820;10.534;2023-07-20T10:06:05;20.10;51.50
21734;DHT22;11029;47.820;10.534;2023-07-20T10:08:37;20.40;51.30
21734;DHT22;11029;47.820;10.534;2023-07-20T10:11:10;20.30;51.70
21734;DHT22;11029;47.820;10.534;2023-07-20T10:13:39;20.40;53.20
21734;DHT22;11029;47.820;10.534;2023-07-20T10:16:11;20.40;51.40
21734;DHT22;11029;47.820;10.534;2023-07-20T10:18:51;20.50;51.30
21734;DHT22;11029;47.820;10.534;2023-07-20T10:21:21;20.60;51.30
21734;DHT22;11029;47.820;10.534;2023-07-20T10:23:53;20.50;50.30
21734;DHT22;11029;47.820;10.534;2023-07-20T10:26:20;20.30;53.00
21734;DHT22;11029;47.820;10.534;2023-07-20T10:28:50;20.20;53.70
21734;DHT22;11029;47.820;10.534;2023-07-20T10:31:17;20.40;51.30
21734;DHT22;11029;47.820;10.534;2023-07-20T10:33:44;20.70;53.60
21734;DHT22;11029;47.820;10.534;2023-07-20T10:36:12;20.80;50.80
21734;DHT22;11029;47.820;10.534;2023-07-20T10:43:58;20.90;52.00
21734;DHT22;11029;47.820;10.534;2023-07-20T10:46:42;20.90;49.60
21734;DHT22;11029;47.820;10.534;2023-07-20T10:49:11;21.00;52.20
21734;DHT22;11029;47.820;10.534;2023-07-20T10:56:44;20.70;51.00
21734;DHT22;11029;47.820;10.534;2023-07-20T11:01:57;20.70;51.90
21734;DHT22;11029;47.820;10.534;2023-07-20T11:04:45;20.70;51.30
21734;DHT22;11029;47.820;10.534;2023-07-20T11:07:16;21.00;51.50
21734;DHT22;11029;47.820;10.534;2023-07-20T11:09:43;21.10;50.90
21734;DHT22;11029;47.820;10.534;2023-07-20T11:12:16;21.10;49.50
21734;DHT22;11029;47.820;10.534;2023-07-20T11:14:57;20.90;50.20
21734;DHT22;11029;47.820;10.534;2023-07-20T11:17:31;21.10;54.00
21734;DHT22;11029;47.820;10.534;2023-07-20T11:20:02;21.10;49.80
21734;DHT22;11029;47.820;10.534;2023-07-20T11:22:32;21.10;50.40
21734;DHT22;11029;47.820;10.534;2023-07-20T11:24:59;21.00;51.50
21734;DHT22;11029;47.820;10.534;2023-07-20T11:27:26;21.00;50.20
21734;DHT22;11029;47.820;10.534;2023-07-20T11:29:54;20.80;50.10
21734;DHT22;11029;47.820;10.534;2023-07-20T11:32:22;21.10;49.50
21734;DHT22;11029;47.820;10.534;2023-07-20T11:34:49;21.20;49.70
21734;DHT22;11029;47.820;10.534;2023-07-20T11:37:19;21.50;49.50
21734;DHT22;11029;47.820;10.534;2023-07-20T11:39:46;21.60;49.70
21734;DHT22;11029;47.820;10.534;2023-07-20T11:42:14;21.90;48.70
21734;DHT22;11029;47.820;10.534;2023-07-20T11:45:05;22.20;50.10
21734;DHT22;11029;47.820;10.534;2023-07-20T11:47:33;21.60;49.10
21734;DHT22;11029;47.820;10.534;2023-07-20T11:50:03;21.40;50.70
21734;DHT22;11029;47.820;10.534;2023-07-20T11:52:31;21.50;49.60
21734;DHT22;11029;47.820;10.534;2023-07-20T11:54:58;21.50;49.80
21734;DHT22;11029;47.820;10.534;2023-07-20T11:57:24;21.60;49.50
21734;DHT22;11029;47.820;10.534;2023-07-20T12:00:00;21.40;49.80
21734;DHT22;11029;47.820;10.534;2023-07-20T12:02:31;21.40;49.50
21734;DHT22;11029;47.820;10.534;2023-07-20T12:04:58;21.70;48.80
21734;DHT22;11029;47.820;10.534;2023-07-20T12:07:27;21.70;49.30
21734;DHT22;11029;47.820;10.534;2023-07-20T12:10:26;21.40;49.20
21734;DHT22;11029;47.820;10.534;2023-07-20T12:12:53;21.60;51.10
21734;DHT22;11029;47.820;10.534;2023-07-20T12:15:24;21.70;48.70
21734;DHT22;11029;47.820;10.534;2023-07-20T12:17:53;21.60;50.70
21734;DHT22;11029;47.820;10.534;2023-07-20T12:22:51;21.90;49.40
21734;DHT22;11029;47.820;10.534;2023-07-20T12:25:18;22.20;49.20
21734;DHT22;11029;47.820;10.534;2023-07-20T12:27:48;22.40;48.20
21734;DHT22;11029;47.820;10.534;2023-07-20T12:30:15;22.60;47.90
21734;DHT22;11029;47.820;10.534;2023-07-20T12:32:42;22.80;47.30
21734;DHT22;11029;47.820;10.534;2023-07-20T12:35:09;22.90;47.00
21734;DHT22;11029;47.820;10.534;2023-07-20T12:37:35;22.80;47.80
21734;DHT22;11029;47.820;10.534;2023-07-20T12:40:02;23.00;48.00
21734;DHT22;11029;47.820;10.534;2023-07-20T12:42:30;23.40;46.50
21734;DHT22;11029;47.820;10.534;2023-07-20T12:44:56;23.10;45.80
21734;DHT22;11029;47.820;10.534;2023-07-20T12:47:23;23.10;47.50
21734;DHT22;11029;47.820;10.534;2023-07-20T12:49:50;23.10;47.20
21734;DHT22;11029;47.820;10.534;2023-07-20T12:52:17;23.20;46.40
21734;DHT22;11029;47.820;10.534;2023-07-20T12:54:44;23.10;46.40
21734;DHT22;11029;47.820;10.534;2023-07-20T12:57:11;23.00;46.50
21734;DHT22;11029;47.820;10.534;2023-07-20T12:59:39;22.60;46.40
21734;DHT22;11029;47.820;10.534;2023-07-20T13:02:05;22.60;47.90
21734;DHT22;11029;47.820;10.534;2023-07-20T13:04:33;22.40;46.40
21734;DHT22;11029;47.820;10.534;2023-07-20T13:06:59;22.30;46.70
21734;DHT22;11029;47.820;10.534;2023-07-20T13:09:27;22.60;48.00
21734;DHT22;11029;47.820;10.534;2023-07-20T13:11:54;23.00;46.60
21734;DHT22;11029;47.820;10.534;2023-07-20T13:14:20;23.20;46.10
21734;DHT22;11029;47.820;10.534;2023-07-20T13:16:47;23.30;45.40
21734;DHT22;11029;47.820;10.534;2023-07-20T13:19:14;23.40;44.60
21734;DHT22;11029;47.820;10.534;2023-07-20T13:21:41;23.30;44.30
21734;DHT22;11029;47.820;10.534;2023-07-20T13:24:08;23.10;46.90
21734;DHT22;11029;47.820;10.534;2023-07-20T13:26:35;23.30;45.20
21734;DHT22;11029;47.820;10.534;2023-07-20T13:29:02;23.70;44.90
21734;DHT22;11029;47.820;10.534;2023-07-20T13:31:29;24.10;43.60
21734;DHT22;11029;47.820;10.534;2023-07-20T13:34:00;24.30;44.50
21734;DHT22;11029;47.820;10.534;2023-07-20T13:36:29;24.40;43.50
21734;DHT22;11029;47.820;10.534;2023-07-20T13:38:56;24.10;46.50
21734;DHT22;11029;47.820;10.534;2023-07-20T13:41:25;24.00;43.90
21734;DHT22;11029;47.820;10.534;2023-07-20T13:43:52;23.80;43.30
21734;DHT22;11029;47.820;10.534;2023-07-20T13:46:24;23.40;43.60
21734;DHT22;11029;47.820;10.534;2023-07-20T13:48:53;23.40;43.30
21734;DHT22;11029;47.820;10.534;2023-07-20T13:51:23;23.60;44.30
21734;DHT22;11029;47.820;10.534;2023-07-20T13:53:54;23.90;43.40
21734;DHT22;11029;47.820;10.534;2023-07-20T13:56:21;24.00;42.90
21734;DHT22;11029;47.820;10.534;2023-07-20T13:58:47;23.70;44.40
21734;DHT22;11029;47.820;10.534;2023-07-20T14:01:16;23.80;43.90
21734;DHT22;11029;47.820;10.534;2023-07-20T14:03:55;23.90;42.60
21734;DHT22;11029;47.820;10.534;2023-07-20T14:06:22;23.80;44.00
21734;DHT22;11029;47.820;10.534;2023-07-20T14:08:52;23.70;44.50
21734;DHT22;11029;47.820;10.534;2023-07-20T14:11:19;23.90;42.50
21734;DHT22;11029;47.820;10.534;2023-07-20T14:13:50;24.10;42.70
21734;DHT22;11029;47.820;10.534;2023-07-20T14:16:17;24.30;43.10
21734;DHT22;11029;47.820;10.534;2023-07-20T14:18:46;23.80;42.20
21734;DHT22;11029;47.820;10.534;2023-07-20T14:21:16;23.70;42.90
21734;DHT22;11029;47.820;10.534;2023-07-20T14:23:48;23.70;44.60
21734;DHT22;11029;47.820;10.534;2023-07-20T14:26:19;23.80;43.30
21734;DHT22;11029;47.820;10.534;2023-07-20T14:28:49;23.80;43.20
21734;DHT22;11029;47.820;10.534;2023-07-20T14:31:15;24.10;44.40
21734;DHT22;11029;47.820;10.534;2023-07-20T14:33:44;24.00;42.70
21734;DHT22;11029;47.820;10.534;2023-07-20T14:36:12;23.70;44.10
21734;DHT22;11029;47.820;10.534;2023-07-20T14:38:39;23.60;43.60
21734;DHT22;11029;47.820;10.534;2023-07-20T14:41:07;23.40;44.10
21734;DHT22;11029;47.820;10.534;2023-07-20T14:43:33;23.40;44.90
21734;DHT22;11029;47.820;10.534;2023-07-20T14:46:00;24.00;44.70
21734;DHT22;11029;47.820;10.534;2023-07-20T14:48:27;24.80;42.30
21734;DHT22;11029;47.820;10.534;2023-07-20T14:50:54;25.40;40.80
21734;DHT22;11029;47.820;10.534;2023-07-20T14:53:30;25.70;40.30
21734;DHT22;11029;47.820;10.534;2023-07-20T14:56:01;26.30;40.00
21734;DHT22;11029;47.820;10.534;2023-07-20T14:58:29;26.50;39.80
21734;DHT22;11029;47.820;10.534;2023-07-20T15:00:59;26.10;39.20
21734;DHT22;11029;47.820;10.534;2023-07-20T15:03:26;25.40;41.20
21734;DHT22;11029;47.820;10.534;2023-07-20T15:05:52;25.30;41.60
21734;DHT22;11029;47.820;10.534;2023-07-20T15:08:19;25.00;41.60
21734;DHT22;11029;47.820;10.534;2023-07-20T15:10:46;24.90;41.80
21734;DHT22;11029;47.820;10.534;2023-07-20T15:13:13;25.10;41.60
21734;DHT22;11029;47.820;10.534;2023-07-20T15:15:40;25.40;41.60
21734;DHT22;11029;47.820;10.534;2023-07-20T15:18:07;26.10;41.30
21734;DHT22;11029;47.820;10.534;2023-07-20T15:20:33;26.20;40.80
21734;DHT22;11029;47.820;10.534;2023-07-20T15:23:00;25.90;41.80
21734;DHT22;11029;47.820;10.534;2023-07-20T15:25:27;26.10;40.60
21734;DHT22;11029;47.820;10.534;2023-07-20T15:27:55;25.80;41.60
21734;DHT22;11029;47.820;10.534;2023-07-20T15:30:23;25.30;40.40
21734;DHT22;11029;47.820;10.534;2023-07-20T15:32:52;25.40;41.00
21734;DHT22;11029;47.820;10.534;2023-07-20T15:35:23;25.90;40.10
21734;DHT22;11029;47.820;10.534;2023-07-20T15:37:50;26.10;40.50
21734;DHT22;11029;47.820;10.534;2023-07-20T15:40:18;25.80;39.60
21734;DHT22;11029;47.820;10.534;2023-07-20T15:42:45;25.70;41.20
21734;DHT22;11029;47.820;10.534;2023-07-20T15:45:20;26.20;41.00
21734;DHT22;11029;47.820;10.534;2023-07-20T15:47:47;26.70;39.20